Chadstone Weather > Observations for 30/03/21

Select Day:



Observations
Time Temp Hum DP Wind Gust Dir Rain >9am Press
C % C kph kph mm hPa
00:00 11.8 83 9.0 0.0 0.0 N 0.0 1015.4
00:10 11.7 83 8.9 0.0 0.0 N 0.0 1015.4
00:20 11.6 84 9.0 0.0 0.0 N 0.0 1015.4
00:30 11.4 84 8.8 0.0 0.0 N 0.0 1015.3
00:40 11.3 84 8.7 0.0 0.0 N 0.0 1015.4
00:50 11.2 85 8.8 0.0 0.0 N 0.0 1015.3
01:00 11.1 85 8.7 0.0 0.0 N 0.0 1015.4
01:10 11.0 85 8.6 0.0 0.0 N 0.0 1015.3
01:20 10.9 87 8.8 0.0 0.0 N 0.0 1015.4
01:30 10.9 87 8.8 0.0 0.0 N 0.0 1015.4
01:40 10.7 87 8.6 0.0 0.0 N 0.0 1015.5
01:50 10.7 88 8.8 0.0 0.0 N 0.0 1015.5
02:00 10.6 88 8.7 0.0 0.0 N 0.0 1015.4
02:10 10.7 88 8.8 0.0 0.0 N 0.0 1015.4
02:20 10.8 89 9.1 0.0 0.0 N 0.0 1015.5
02:30 10.9 89 9.2 0.0 0.0 N 0.0 1015.3
02:40 11.0 89 9.3 0.0 0.0 N 0.0 1015.1
02:50 11.1 89 9.4 0.0 0.0 N 0.0 1014.9
03:00 11.2 90 9.6 0.0 0.0 N 0.0 1014.8
03:10 11.1 90 9.5 0.0 0.0 N 0.0 1014.7
03:20 11.0 89 9.3 0.0 0.0 N 0.0 1014.5
03:30 10.8 90 9.2 0.0 0.0 N 0.0 1014.4
03:40 10.7 90 9.1 0.0 0.0 N 0.0 1014.5
03:50 10.6 90 9.0 0.0 0.0 N 0.0 1014.5
04:00 10.5 90 8.9 0.0 0.0 N 0.0 1014.5
04:10 10.5 90 8.9 0.0 0.0 N 0.0 1014.6
04:20 10.5 91 9.1 0.0 0.0 N 0.0 1014.6
04:30 10.5 91 9.1 0.0 0.0 N 0.0 1014.6
04:40 10.6 92 9.4 0.0 0.0 N 0.0 1014.5
04:50 10.7 92 9.5 0.0 0.0 N 0.0 1014.4
05:00 10.8 92 9.6 0.0 0.0 N 0.0 1014.5
05:10 10.9 93 9.8 0.0 0.0 N 0.0 1014.5
05:20 10.9 93 9.8 0.0 0.0 N 0.0 1014.5
05:30 11.0 91 9.6 0.0 0.0 N 0.0 1014.5
05:40 11.0 91 9.6 0.0 0.0 N 0.0 1014.7
05:50 11.0 91 9.6 0.0 0.0 N 0.0 1014.7
06:00 11.1 91 9.7 0.0 0.0 N 0.0 1014.8
06:10 11.1 91 9.7 0.0 0.0 N 0.0 1014.8
06:20 11.1 91 9.7 0.0 0.0 N 0.0 1015.2
06:30 11.2 91 9.8 0.0 0.0 N 0.0 1015.2
06:40 11.2 91 9.8 0.0 0.0 N 0.0 1015.2
06:50 11.2 92 10.0 0.0 0.0 N 0.0 1015.3
07:00 11.2 92 10.0 0.0 0.0 N 0.0 1015.4
07:10 11.3 92 10.1 0.0 0.0 N 0.0 1015.5
07:20 11.2 92 10.0 0.0 0.0 N 0.0 1015.6
07:30 11.2 92 10.0 0.0 0.0 N 0.0 1015.4
07:40 11.2 92 10.0 0.0 0.0 N 0.0 1015.6
07:50 11.3 92 10.1 0.0 0.0 N 0.0 1015.6
08:00 11.3 92 10.1 0.0 0.0 N 0.0 1015.7
08:10 11.4 92 10.1 0.0 0.0 N 0.0 1015.6
08:20 11.4 92 10.1 0.0 0.0 N 0.0 1015.7
08:30 11.6 92 10.3 0.0 0.0 N 0.0 1015.8
08:40 11.6 92 10.3 0.0 0.0 N 0.0 1015.9
08:50 11.7 92 10.4 0.0 0.0 N 0.0 1016.2
09:00 12.0 91 10.6 0.0 0.0 N 0.0 1016.2
09:10 12.3 91 10.9 0.0 0.0 N 0.0 1016.3
09:20 12.8 90 11.2 0.0 0.0 N 0.0 1016.3
09:30 13.1 89 11.3 0.0 0.0 N 0.0 1016.5
09:40 13.5 89 11.7 0.0 0.0 N 0.0 1016.5
09:50 13.8 88 11.9 0.0 0.0 N 0.0 1016.4
10:00 14.4 86 12.1 0.0 0.0 N 0.0 1016.4
10:10 14.8 86 12.5 0.0 0.0 N 0.0 1016.4
10:20 14.9 85 12.4 0.0 0.0 N 0.0 1016.4
10:30 15.1 83 12.2 0.0 0.0 N 0.0 1016.3
10:40 15.5 83 12.6 0.0 0.0 N 0.0 1016.4
10:50 15.9 82 12.8 0.0 0.0 N 0.0 1016.4
11:00 16.2 78 12.4 0.0 0.0 N 0.0 1016.4
11:10 16.5 76 12.3 0.7 9.7 SSE 0.0 1016.3
11:20 17.1 74 12.4 1.6 9.7 W 0.0 1016.1
11:30 16.8 75 12.4 0.3 6.1 W 0.0 1016.0
11:40 16.7 74 12.1 1.1 7.2 SSE 0.0 1015.9
11:50 17.3 71 12.0 0.7 8.6 SSW 0.0 1015.8
12:00 17.7 67 11.5 2.2 11.2 SSE 0.0 1015.7
12:10 17.8 66 11.4 0.9 8.6 WSW 0.0 1015.7
12:20 18.0 66 11.6 0.7 6.1 SSW 0.0 1015.4
12:30 18.5 65 11.8 0.4 6.1 S 0.0 1015.3
12:40 18.7 62 11.3 0.8 6.1 WSW 0.0 1015.3
12:50 18.7 62 11.3 0.9 7.2 S 0.0 1015.2
13:00 19.1 60 11.2 2.3 8.6 SE 0.0 1015.2
13:10 19.2 60 11.3 1.5 8.6 SSW 0.0 1015.0
13:20 19.3 60 11.4 1.2 6.1 SSW 0.0 1014.9
13:30 19.6 60 11.6 0.0 3.6 W 0.0 1014.7
13:40 19.7 59 11.5 2.8 11.2 S 0.0 1014.5
13:50 20.1 58 11.6 2.8 11.2 SSE 0.0 1014.4
14:00 20.2 59 11.9 0.7 11.2 WSW 0.0 1014.4
14:10 20.2 57 11.4 2.0 11.2 SSW 0.0 1014.4
14:20 20.5 58 12.0 2.3 8.6 SSE 0.0 1014.2
14:30 20.4 56 11.3 2.8 13.3 S 0.0 1014.0
14:40 20.5 56 11.4 1.5 9.7 SSE 0.0 1013.9
14:50 20.3 56 11.2 5.2 13.3 SE 0.0 1013.7
15:00 20.5 57 11.7 2.1 9.7 SSE 0.0 1013.6
15:10 20.3 55 11.0 1.5 15.8 S 0.0 1013.6
15:20 20.2 57 11.4 3.1 13.3 SE 0.0 1013.3
15:30 20.2 58 11.7 3.2 13.3 SSE 0.0 1013.5
15:40 20.1 58 11.6 2.9 14.8 SSE 0.0 1013.4
15:50 20.1 59 11.8 1.9 11.2 S 0.0 1013.4
16:00 20.2 60 12.2 2.2 8.6 WSW 0.0 1013.5
16:10 20.0 60 12.0 1.2 7.2 S 0.0 1013.3
16:20 19.9 62 12.4 1.1 8.6 S 0.0 1013.3
16:30 19.7 63 12.5 0.6 7.2 SSW 0.0 1013.3
16:40 19.7 63 12.5 1.6 6.1 SSE 0.0 1013.3
16:50 19.6 63 12.4 1.9 11.2 S 0.0 1013.2
17:00 19.7 63 12.5 1.8 11.2 SSW 0.0 1013.3
17:10 19.7 63 12.5 1.3 9.7 WSW 0.0 1013.3
17:20 19.4 63 12.2 0.4 6.1 S 0.0 1013.4
17:30 19.3 64 12.3 2.0 8.6 SW 0.0 1013.5
17:40 19.3 65 12.6 0.3 6.1 SW 0.0 1013.5
17:50 19.2 65 12.5 0.5 5.0 SW 0.0 1013.4
18:00 19.0 66 12.5 0.8 7.2 SSW 0.0 1013.4
18:10 18.9 67 12.6 0.4 3.6 SW 0.0 1013.4
18:20 18.8 68 12.8 0.3 6.1 WSW 0.0 1013.3
18:30 18.7 69 12.9 0.4 3.6 SSW 0.0 1013.6
18:40 18.5 70 12.9 0.5 7.2 SSW 0.0 1013.6
18:50 18.4 70 12.8 0.2 3.6 SW 0.0 1013.6
19:00 18.2 72 13.1 0.0 1.1 S 0.0 1013.7
19:10 18.1 73 13.2 0.1 2.5 SSW 0.0 1013.5
19:20 17.9 73 13.0 0.5 6.1 SSE 0.0 1013.5
19:30 17.6 74 12.9 0.7 5.0 SSE 0.0 1013.5
19:40 17.4 75 12.9 0.0 3.6 ESE 0.0 1013.6
19:50 17.1 76 12.8 0.0 1.1 S 0.0 1013.7
20:00 16.9 78 13.0 0.0 0.0 N 0.0 1013.6
20:10 16.7 79 13.0 0.1 2.5 SE 0.0 1013.7
20:20 16.5 80 13.0 0.0 1.1 SE 0.0 1013.9
20:30 16.3 81 13.0 0.0 1.1 SE 0.0 1013.8
20:40 16.2 82 13.1 0.0 0.0 N 0.0 1013.8
20:50 16.1 83 13.2 0.0 0.0 N 0.0 1014.0
21:00 15.9 84 13.2 0.0 0.0 N 0.0 1014.1
21:10 15.7 84 13.0 0.0 0.0 N 0.0 1014.3
21:20 15.6 84 12.9 0.0 0.0 N 0.0 1014.3
21:30 15.5 84 12.8 0.0 0.0 N 0.0 1014.4
21:40 15.4 84 12.7 0.0 0.0 N 0.0 1014.5
21:50 15.2 84 12.5 0.0 0.0 N 0.0 1014.5
22:00 15.0 84 12.3 0.0 0.0 N 0.0 1014.5
22:10 14.8 85 12.3 0.0 0.0 N 0.0 1014.6
22:20 14.7 85 12.2 0.0 0.0 N 0.0 1014.5
22:30 14.5 85 12.0 0.0 0.0 N 0.0 1014.4
22:40 14.4 85 11.9 0.0 0.0 N 0.0 1014.5
22:50 14.3 85 11.8 0.0 0.0 N 0.0 1014.4
23:00 14.3 86 12.0 0.0 0.0 N 0.0 1014.4
23:10 14.2 86 11.9 0.0 0.0 N 0.0 1014.4
23:20 14.1 86 11.8 0.0 0.0 N 0.0 1014.4
23:30 14.0 86 11.7 0.0 0.0 N 0.0 1014.4
23:40 13.9 87 11.8 0.0 0.0 N 0.0 1014.3
23:50 13.8 88 11.9 0.0 0.0 N 0.0 1014.3